createdAt,value
2017-05-08T00:01:28.950Z,3.73
2017-05-08T00:03:57.247Z,3.30
2017-05-08T00:06:25.579Z,3.32
2017-05-08T00:08:53.890Z,2.78
2017-05-08T00:11:22.194Z,2.88
2017-05-08T00:13:50.547Z,3.35
2017-05-08T00:16:18.840Z,3.28
2017-05-08T00:18:47.139Z,3.75
2017-05-08T00:21:15.465Z,3.75
2017-05-08T00:23:43.767Z,4.25
2017-05-08T00:26:12.066Z,3.45
2017-05-08T00:28:40.407Z,4.00
2017-05-08T00:31:08.705Z,3.33
2017-05-08T00:33:36.997Z,3.93
2017-05-08T00:36:05.317Z,4.27
2017-05-08T00:38:33.624Z,4.35
2017-05-08T00:41:01.930Z,4.25
2017-05-08T00:43:30.267Z,3.87
2017-05-08T00:45:58.564Z,4.45
2017-05-08T00:48:26.864Z,3.82
2017-05-08T00:50:55.213Z,4.30
2017-05-08T00:53:23.518Z,4.47
2017-05-08T00:55:51.820Z,4.63
2017-05-08T00:58:20.141Z,4.53
2017-05-08T01:00:48.432Z,3.90
2017-05-08T01:03:16.726Z,3.77
2017-05-08T01:05:45.057Z,3.87
2017-05-08T01:08:14.088Z,4.17
2017-05-08T01:10:42.380Z,4.43
2017-05-08T01:13:10.684Z,4.83
2017-05-08T01:15:38.972Z,4.42
2017-05-08T01:18:08.020Z,4.82
2017-05-08T01:20:36.309Z,4.27
2017-05-08T01:23:04.611Z,4.57
2017-05-08T01:25:32.921Z,4.08
2017-05-08T01:28:01.220Z,5.03
2017-05-08T01:30:29.517Z,4.17
2017-05-08T01:32:57.859Z,4.50
2017-05-08T01:35:26.154Z,5.15
2017-05-08T01:37:54.445Z,4.72
2017-05-08T01:40:22.789Z,4.65
2017-05-08T01:42:51.090Z,4.80
2017-05-08T01:45:19.401Z,5.02
2017-05-08T01:47:47.736Z,6.48
2017-05-08T01:50:16.037Z,5.77
2017-05-08T01:52:44.341Z,6.08
2017-05-08T01:55:12.689Z,5.92
2017-05-08T01:57:40.989Z,6.05
2017-05-08T02:00:09.292Z,4.97
2017-05-08T02:02:37.613Z,6.30
2017-05-08T02:05:05.915Z,6.10
2017-05-08T02:07:34.210Z,6.22
2017-05-08T02:10:02.541Z,5.75
2017-05-08T02:12:30.838Z,6.17
2017-05-08T02:14:59.127Z,6.08
2017-05-08T02:17:27.479Z,6.38
2017-05-08T02:19:55.781Z,6.53
2017-05-08T02:22:24.069Z,6.07
2017-05-08T02:24:52.401Z,6.32
2017-05-08T02:27:21.434Z,6.55
2017-05-08T02:29:49.750Z,6.70
2017-05-08T02:32:18.175Z,6.88
2017-05-08T02:34:46.478Z,7.02
2017-05-08T02:37:14.778Z,5.90
2017-05-08T02:39:43.113Z,6.92
2017-05-08T02:42:11.409Z,6.43
2017-05-08T02:44:39.706Z,6.38
2017-05-08T02:47:08.034Z,5.53
2017-05-08T02:49:36.339Z,6.32
2017-05-08T02:52:04.642Z,5.95
2017-05-08T02:54:32.977Z,5.85
2017-05-08T02:57:01.340Z,6.50
2017-05-08T02:59:30.374Z,24.73
2017-05-08T03:01:58.709Z,16.62
2017-05-08T03:04:27.761Z,22.22
2017-05-08T03:06:56.066Z,12.08
2017-05-08T03:09:24.411Z,8.25
2017-05-08T03:11:52.710Z,5.82
2017-05-08T03:14:21.023Z,6.55
2017-05-08T03:16:49.353Z,6.15
2017-05-08T03:19:17.651Z,5.40
2017-05-08T03:21:45.962Z,7.93
2017-05-08T03:24:14.311Z,8.17
2017-05-08T03:26:42.609Z,6.65
2017-05-08T03:29:11.646Z,6.92
2017-05-08T03:31:39.988Z,6.37
2017-05-08T03:34:09.029Z,5.97
2017-05-08T03:36:37.331Z,6.32
2017-05-08T03:39:05.797Z,6.35
2017-05-08T03:41:34.106Z,5.70
2017-05-08T03:44:02.404Z,6.20
2017-05-08T03:46:31.483Z,6.53
2017-05-08T03:49:00.542Z,6.70
2017-05-08T03:51:28.838Z,7.33
2017-05-08T03:53:57.170Z,6.52
2017-05-08T03:56:25.470Z,6.92
2017-05-08T03:58:53.777Z,6.97
2017-05-08T04:01:22.112Z,7.65
2017-05-08T04:03:50.417Z,7.03
2017-05-08T04:06:18.722Z,7.08
2017-05-08T04:08:47.069Z,7.45
2017-05-08T04:11:15.366Z,7.03
2017-05-08T04:13:43.690Z,6.87
2017-05-08T04:16:11.987Z,7.12
2017-05-08T04:18:40.278Z,7.00
2017-05-08T04:21:08.626Z,6.90
2017-05-08T04:23:36.925Z,7.55
2017-05-08T04:26:05.218Z,6.75
2017-05-08T04:28:33.558Z,7.50
2017-05-08T04:31:01.864Z,7.45
2017-05-08T04:33:30.161Z,7.02
2017-05-08T04:35:58.486Z,7.03
2017-05-08T04:38:26.792Z,6.93
2017-05-08T04:40:55.088Z,7.72
2017-05-08T04:43:23.428Z,7.90
2017-05-08T04:45:51.747Z,7.85
2017-05-08T04:48:20.044Z,7.07
2017-05-08T04:50:48.386Z,8.00
2017-05-08T04:53:16.685Z,7.93
2017-05-08T04:55:45.009Z,7.58
2017-05-08T04:58:14.076Z,7.67
2017-05-08T05:00:42.373Z,8.48
2017-05-08T05:03:10.673Z,8.38
2017-05-08T05:05:39.010Z,8.13
2017-05-08T05:08:07.300Z,9.03
2017-05-08T05:10:35.596Z,7.98
2017-05-08T05:13:04.672Z,8.20
2017-05-08T05:15:32.966Z,8.57
2017-05-08T05:18:02.009Z,9.32
2017-05-08T05:20:30.337Z,9.45
2017-05-08T05:22:59.381Z,10.25
2017-05-08T05:25:27.690Z,10.12
2017-05-08T05:27:56.025Z,10.10
2017-05-08T05:30:24.343Z,10.55
2017-05-08T05:32:52.686Z,10.02
2017-05-08T05:35:21.029Z,9.70
2017-05-08T05:37:50.070Z,9.67
2017-05-08T05:40:18.377Z,8.88
2017-05-08T05:42:46.719Z,10.25
2017-05-08T05:45:15.028Z,10.27
2017-05-08T05:47:43.330Z,9.22
2017-05-08T05:50:12.419Z,10.22
2017-05-08T05:52:40.731Z,10.45
2017-05-08T05:55:09.037Z,10.40
2017-05-08T05:57:37.365Z,10.03
2017-05-08T06:00:05.669Z,11.03
2017-05-08T06:02:33.974Z,9.68
2017-05-08T06:05:02.313Z,9.95
2017-05-08T06:07:31.361Z,11.83
2017-05-08T06:09:59.672Z,10.95
2017-05-08T06:12:28.034Z,11.05
2017-05-08T06:14:56.343Z,11.07
2017-05-08T06:17:24.667Z,10.38
2017-05-08T06:19:53.004Z,10.50
2017-05-08T06:22:22.053Z,10.58
2017-05-08T06:24:50.353Z,10.45
2017-05-08T06:27:18.692Z,11.42
2017-05-08T06:29:47.015Z,12.48
2017-05-08T06:32:15.309Z,12.12
2017-05-08T06:34:44.377Z,10.18
2017-05-08T06:37:12.696Z,11.60
2017-05-08T06:39:41.007Z,10.47
2017-05-08T06:42:09.346Z,11.60
2017-05-08T06:44:38.399Z,11.13
2017-05-08T06:47:06.697Z,11.73
2017-05-08T06:49:35.034Z,11.27
2017-05-08T06:52:03.346Z,11.12
2017-05-08T06:54:31.653Z,10.90
2017-05-08T06:57:00.738Z,11.98
2017-05-08T06:59:29.058Z,11.40
2017-05-08T07:01:57.357Z,10.78
2017-05-08T07:04:26.145Z,11.50
2017-05-08T07:06:54.462Z,10.90
2017-05-08T07:09:22.777Z,12.30
2017-05-08T07:11:51.111Z,12.28
2017-05-08T07:14:19.415Z,12.03
2017-05-08T07:16:48.462Z,12.27
2017-05-08T07:19:16.814Z,12.03
2017-05-08T07:21:45.261Z,12.32
2017-05-08T07:24:14.318Z,13.98
2017-05-08T07:26:42.652Z,12.98
2017-05-08T07:29:10.950Z,13.13
2017-05-08T07:31:39.257Z,12.28
2017-05-08T07:34:07.648Z,14.63
2017-05-08T07:36:35.961Z,13.75
2017-05-08T07:39:04.268Z,14.65
2017-05-08T07:41:32.601Z,15.20
2017-05-08T07:44:00.909Z,14.22
2017-05-08T07:46:29.223Z,14.35
2017-05-08T07:48:57.559Z,15.72
2017-05-08T07:51:26.598Z,14.48
2017-05-08T07:53:54.902Z,15.55
2017-05-08T07:56:23.251Z,14.67
2017-05-08T07:58:51.556Z,16.37
2017-05-08T08:01:19.865Z,15.93
2017-05-08T08:03:48.956Z,16.58
2017-05-08T08:06:18.009Z,16.40
2017-05-08T08:08:46.320Z,15.20
2017-05-08T08:11:15.401Z,15.97
2017-05-08T08:13:43.708Z,16.65
2017-05-08T08:16:12.758Z,17.43
2017-05-08T08:18:41.107Z,15.35
2017-05-08T08:21:09.419Z,16.16
2017-05-08T08:23:37.747Z,15.63
2017-05-08T08:26:06.829Z,18.08
2017-05-08T08:28:35.147Z,16.92
2017-05-08T08:31:03.505Z,16.47
2017-05-08T08:33:32.633Z,16.33
2017-05-08T08:36:00.933Z,16.95
2017-05-08T08:38:29.245Z,17.87
2017-05-08T08:40:58.328Z,16.97
2017-05-08T08:43:26.639Z,16.85
2017-05-08T08:45:54.937Z,16.62
2017-05-08T08:48:23.284Z,16.52
2017-05-08T08:50:52.338Z,17.28
2017-05-08T08:53:20.646Z,16.33
2017-05-08T08:55:49.017Z,17.98
2017-05-08T08:58:17.332Z,16.48
2017-05-08T09:00:45.633Z,16.57
2017-05-08T09:03:13.981Z,16.60
2017-05-08T09:05:42.285Z,16.93
2017-05-08T09:08:10.582Z,15.57
2017-05-08T09:10:38.921Z,16.82
2017-05-08T09:13:07.229Z,17.22
2017-05-08T09:15:35.544Z,15.22
2017-05-08T09:18:03.893Z,17.55
2017-05-08T09:20:32.238Z,16.30
2017-05-08T09:23:00.559Z,18.27
2017-05-08T09:25:28.911Z,17.38
2017-05-08T09:27:57.293Z,16.63
2017-05-08T09:30:25.606Z,15.68
2017-05-08T09:32:53.947Z,14.88
2017-05-08T09:35:22.287Z,15.58
2017-05-08T09:37:51.150Z,15.78
2017-05-08T09:40:19.489Z,14.87
2017-05-08T09:42:47.805Z,14.67
2017-05-08T09:45:16.120Z,15.48
2017-05-08T09:47:45.198Z,15.68
2017-05-08T09:50:13.505Z,15.62
2017-05-08T09:52:41.834Z,15.38
2017-05-08T09:55:10.187Z,14.28
2017-05-08T09:57:38.509Z,15.98
2017-05-08T10:00:06.841Z,16.32
2017-05-08T10:02:35.177Z,14.47
2017-05-08T10:05:03.481Z,13.55
2017-05-08T10:07:32.544Z,13.65
2017-05-08T10:10:00.880Z,14.95
2017-05-08T10:12:29.184Z,13.85
2017-05-08T10:14:57.486Z,13.97
2017-05-08T10:17:25.825Z,13.17
2017-05-08T10:19:54.134Z,14.10
2017-05-08T10:22:22.451Z,13.78
2017-05-08T10:24:50.805Z,15.03
2017-05-08T10:27:20.018Z,14.63
2017-05-08T10:29:49.078Z,13.93
2017-05-08T10:32:19.341Z,14.22
2017-05-08T10:34:48.389Z,14.50
2017-05-08T10:37:16.692Z,12.58
2017-05-08T10:39:45.981Z,13.57
2017-05-08T10:42:14.289Z,13.03
2017-05-08T10:44:42.600Z,13.88
2017-05-08T10:47:10.950Z,14.13
2017-05-08T10:49:39.279Z,14.20
2017-05-08T10:52:07.587Z,13.72
2017-05-08T10:54:35.933Z,14.92
2017-05-08T10:57:04.239Z,14.63
2017-05-08T10:59:32.548Z,15.50
2017-05-08T11:02:01.631Z,15.83
2017-05-08T11:04:29.925Z,14.87
2017-05-08T11:06:58.965Z,15.65
2017-05-08T11:09:27.297Z,15.52
2017-05-08T11:11:56.342Z,14.55
2017-05-08T11:14:24.647Z,14.40
2017-05-08T11:16:52.993Z,12.58
2017-05-08T11:19:21.293Z,13.90
2017-05-08T11:21:49.596Z,12.95
2017-05-08T11:24:17.938Z,13.10
2017-05-08T11:26:46.241Z,12.20
2017-05-08T11:29:14.546Z,11.78
2017-05-08T11:31:43.625Z,10.85
2017-05-08T11:34:11.927Z,10.23
2017-05-08T11:36:40.228Z,10.72
2017-05-08T11:39:08.574Z,11.15
2017-05-08T11:41:36.878Z,11.05
2017-05-08T11:44:07.093Z,10.02
2017-05-08T11:46:39.060Z,11.78
2017-05-08T11:49:07.373Z,11.23
2017-05-08T11:51:35.690Z,11.60
2017-05-08T11:54:04.063Z,11.98
2017-05-08T11:56:32.368Z,12.65
2017-05-08T11:59:00.702Z,11.63
2017-05-08T12:01:29.037Z,10.75
2017-05-08T12:03:57.353Z,11.33
2017-05-08T12:06:25.694Z,12.12
2017-05-08T12:08:54.094Z,12.27
2017-05-08T12:11:22.404Z,10.73
2017-05-08T12:13:50.705Z,11.65
2017-05-08T12:16:19.899Z,11.58
2017-05-08T12:18:48.202Z,11.18
2017-05-08T12:21:16.518Z,11.42
2017-05-08T12:23:44.864Z,10.92
2017-05-08T12:26:13.190Z,10.98
2017-05-08T12:28:41.605Z,9.80
2017-05-08T12:31:10.697Z,9.28
2017-05-08T12:33:39.748Z,10.30
2017-05-08T12:36:08.058Z,10.57
2017-05-08T12:38:36.395Z,10.57
2017-05-08T12:41:04.698Z,9.22
2017-05-08T12:43:33.230Z,9.22
2017-05-08T12:46:01.591Z,10.42
2017-05-08T12:48:30.742Z,9.03
2017-05-08T12:50:59.095Z,10.33
2017-05-08T12:53:27.608Z,10.90
2017-05-08T12:55:56.065Z,10.97
2017-05-08T12:58:24.393Z,12.18
2017-05-08T13:00:52.733Z,13.10
2017-05-08T13:03:21.033Z,14.95
2017-05-08T13:05:49.380Z,12.70
2017-05-08T13:08:17.733Z,13.82
2017-05-08T13:10:46.927Z,14.17
2017-05-08T13:13:15.344Z,13.42
2017-05-08T13:15:43.686Z,13.35
2017-05-08T13:18:12.750Z,14.33
2017-05-08T13:20:41.063Z,13.68
2017-05-08T13:23:10.297Z,13.40
2017-05-08T13:25:39.031Z,12.05
2017-05-08T13:28:07.349Z,13.43
2017-05-08T13:30:36.483Z,13.28
2017-05-08T13:33:04.831Z,13.18
2017-05-08T13:35:33.903Z,11.35
2017-05-08T13:38:02.250Z,12.82
2017-05-08T13:40:30.549Z,11.70
2017-05-08T13:42:59.016Z,10.68
2017-05-08T13:45:27.374Z,10.60
2017-05-08T13:47:55.692Z,10.52
2017-05-08T13:50:24.108Z,11.45
2017-05-08T13:52:52.630Z,11.78
2017-05-08T13:55:20.981Z,10.85
2017-05-08T13:57:49.416Z,11.42
2017-05-08T14:00:18.656Z,10.90
2017-05-08T14:02:46.992Z,11.30
2017-05-08T14:05:15.298Z,10.40
2017-05-08T14:07:44.514Z,10.70
2017-05-08T14:10:12.926Z,9.63
2017-05-08T14:12:41.280Z,9.97
2017-05-08T14:15:09.699Z,8.95
2017-05-08T14:17:38.016Z,9.30
2017-05-08T14:20:06.313Z,9.33
2017-05-08T14:22:34.819Z,9.17
2017-05-08T14:25:03.140Z,8.58
2017-05-08T14:27:31.441Z,7.73
2017-05-08T14:29:59.940Z,8.67
2017-05-08T14:32:28.281Z,8.55
2017-05-08T14:34:56.612Z,7.83
2017-05-08T14:37:25.048Z,9.10
2017-05-08T14:39:54.186Z,8.75
2017-05-08T14:42:22.629Z,10.40
2017-05-08T14:44:51.086Z,10.27
2017-05-08T14:47:19.406Z,10.00
2017-05-08T14:49:48.452Z,9.40
2017-05-08T14:52:16.980Z,8.68
2017-05-08T14:54:45.297Z,8.55
2017-05-08T14:57:13.660Z,9.45
2017-05-08T14:59:42.004Z,9.15
2017-05-08T15:02:10.413Z,9.55
2017-05-08T15:04:38.759Z,9.48
2017-05-08T15:07:07.097Z,10.35
2017-05-08T15:09:35.483Z,11.52
2017-05-08T15:12:03.797Z,10.82
2017-05-08T15:14:32.149Z,10.87
2017-05-08T15:17:00.457Z,11.18
2017-05-08T15:19:28.764Z,10.63
2017-05-08T15:21:57.286Z,11.30
2017-05-08T15:24:25.681Z,11.60
2017-05-08T15:26:54.019Z,10.58
2017-05-08T15:29:22.407Z,11.53
2017-05-08T15:31:50.754Z,10.25
2017-05-08T15:34:19.822Z,11.07
2017-05-08T15:36:48.252Z,12.17
2017-05-08T15:39:16.570Z,10.98
2017-05-08T15:41:44.864Z,12.03
2017-05-08T15:44:13.578Z,11.65
2017-05-08T15:46:42.624Z,11.80
2017-05-08T15:49:10.935Z,12.08
2017-05-08T15:51:39.340Z,11.23
2017-05-08T15:54:07.640Z,12.47
2017-05-08T15:56:35.940Z,13.33
2017-05-08T15:59:04.329Z,12.32
2017-05-08T16:01:32.628Z,12.78
2017-05-08T16:04:01.013Z,12.60
2017-05-08T16:06:30.118Z,13.72
2017-05-08T16:08:59.279Z,14.20
2017-05-08T16:11:27.594Z,13.85
2017-05-08T16:13:56.685Z,13.52
2017-05-08T16:16:25.744Z,15.08
2017-05-08T16:18:54.054Z,15.25
2017-05-08T16:21:22.395Z,14.22
2017-05-08T16:23:50.703Z,14.37
2017-05-08T16:26:19.416Z,15.02
2017-05-08T16:28:48.542Z,15.38
2017-05-08T16:31:16.951Z,16.35
2017-05-08T16:33:45.341Z,16.03
2017-05-08T16:36:13.746Z,14.90
2017-05-08T16:38:42.801Z,15.15
2017-05-08T16:41:11.122Z,15.00
2017-05-08T16:43:40.209Z,15.55
2017-05-08T16:51:52.170Z,14.32
2017-05-08T16:54:21.218Z,14.17
2017-05-08T16:56:49.987Z,15.82
2017-05-08T16:59:18.323Z,15.10
2017-05-08T17:01:47.418Z,15.43
2017-05-08T17:04:16.587Z,14.95
2017-05-08T17:06:44.955Z,16.00
2017-05-08T17:09:13.353Z,15.72
2017-05-08T17:11:41.728Z,16.27
2017-05-08T17:14:10.040Z,15.97
2017-05-08T17:16:39.095Z,17.30
2017-05-08T17:19:07.467Z,16.22
2017-05-08T17:21:35.793Z,16.50
2017-05-08T17:24:04.845Z,16.12
2017-05-08T17:26:33.423Z,14.70
2017-05-08T17:29:01.769Z,16.95
2017-05-08T17:31:30.085Z,17.53
2017-05-08T17:33:58.434Z,17.67
2017-05-08T17:36:26.738Z,17.53
2017-05-08T17:38:55.053Z,17.08
2017-05-08T17:41:23.402Z,15.42
2017-05-08T17:43:51.886Z,15.65
2017-05-08T17:46:20.218Z,17.63
2017-05-08T17:48:49.332Z,16.57
2017-05-08T17:51:17.646Z,16.92
2017-05-08T17:53:46.031Z,16.87
2017-05-08T17:56:14.472Z,17.02
2017-05-08T17:58:42.803Z,17.95
2017-05-08T18:01:11.107Z,17.83
2017-05-08T18:03:39.454Z,17.12
2017-05-08T18:06:07.779Z,17.10
2017-05-08T18:08:36.081Z,17.73
2017-05-08T18:11:04.414Z,17.90
2017-05-08T18:13:32.728Z,19.10
2017-05-08T18:16:01.039Z,16.50
2017-05-08T18:18:29.458Z,17.32
2017-05-08T18:20:57.781Z,18.15
2017-05-08T18:23:26.208Z,16.82
2017-05-08T18:25:55.371Z,17.90
2017-05-08T18:28:23.705Z,18.75
2017-05-08T18:30:52.754Z,18.72
2017-05-08T18:33:21.169Z,16.10
2017-05-08T18:35:50.237Z,17.07
2017-05-08T18:38:18.553Z,17.13
2017-05-08T18:40:47.651Z,17.40
2017-05-08T18:43:16.691Z,18.28
2017-05-08T18:45:45.003Z,17.40
2017-05-08T18:48:13.370Z,17.55
2017-05-08T18:50:41.677Z,17.03
2017-05-08T18:53:10.731Z,17.78
2017-05-08T18:55:39.086Z,16.93
2017-05-08T18:58:07.391Z,15.45
2017-05-08T19:00:35.696Z,16.33
2017-05-08T19:03:04.056Z,16.68
2017-05-08T19:05:32.370Z,16.52
2017-05-08T19:08:01.470Z,17.67
2017-05-08T19:10:30.629Z,19.78
2017-05-08T19:12:59.056Z,16.47
2017-05-08T19:15:27.386Z,16.17
2017-05-08T19:17:55.731Z,16.75
2017-05-08T19:20:24.071Z,17.32
2017-05-08T19:22:52.383Z,16.17
2017-05-08T19:25:20.743Z,15.93
2017-05-08T19:27:49.807Z,15.80
2017-05-08T19:30:18.163Z,18.12
2017-05-08T19:32:46.509Z,16.23
2017-05-08T19:35:14.857Z,15.07
2017-05-08T19:37:43.159Z,15.63
2017-05-08T19:40:12.250Z,14.95
2017-05-08T19:42:41.307Z,17.22
2017-05-08T19:45:09.607Z,15.57
2017-05-08T19:47:37.966Z,16.28
2017-05-08T19:50:06.266Z,16.05
2017-05-08T19:52:34.566Z,15.53
2017-05-08T19:55:03.651Z,16.53
2017-05-08T19:57:32.694Z,16.23
2017-05-08T20:00:01.002Z,16.30
2017-05-08T20:02:29.522Z,16.68
2017-05-08T20:04:57.859Z,16.50
2017-05-08T20:07:26.218Z,16.32
2017-05-08T20:09:54.606Z,17.40
2017-05-08T20:12:22.921Z,14.90
2017-05-08T20:14:51.259Z,16.13
2017-05-08T20:17:19.626Z,15.78
2017-05-08T20:19:47.963Z,14.65
2017-05-08T20:22:17.005Z,14.60
2017-05-08T20:24:45.388Z,13.65
2017-05-08T20:27:13.714Z,12.77
2017-05-08T20:29:42.794Z,13.65
2017-05-08T20:32:11.184Z,11.35
2017-05-08T20:34:39.502Z,10.92
2017-05-08T20:37:07.805Z,10.15
2017-05-08T20:39:36.151Z,11.32
2017-05-08T20:42:04.460Z,11.20
2017-05-08T20:44:32.808Z,11.67
2017-05-08T20:47:01.158Z,11.25
2017-05-08T20:49:29.467Z,9.17
2017-05-08T20:51:57.824Z,9.82
2017-05-08T20:54:26.190Z,10.00
2017-05-08T20:56:54.489Z,9.78
2017-05-08T20:59:23.521Z,9.12
2017-05-08T21:01:51.869Z,8.92
2017-05-08T21:04:20.177Z,8.93
2017-05-08T21:06:48.477Z,8.75
2017-05-08T21:09:16.824Z,8.42
2017-05-08T21:11:45.125Z,8.60
2017-05-08T21:14:13.430Z,8.23
2017-05-08T21:16:41.782Z,8.23
2017-05-08T21:19:10.087Z,7.48
2017-05-08T21:21:38.390Z,8.78
2017-05-08T21:24:07.469Z,7.78
2017-05-08T21:26:35.775Z,8.57
2017-05-08T21:29:04.815Z,9.18
2017-05-08T21:31:33.133Z,8.33
2017-05-08T21:34:01.434Z,8.95
2017-05-08T21:36:29.758Z,7.73
2017-05-08T21:38:58.057Z,8.12
2017-05-08T21:41:26.367Z,9.23
2017-05-08T21:43:54.692Z,7.85
2017-05-08T21:46:22.989Z,8.37
2017-05-08T21:48:51.330Z,8.02
2017-05-08T21:51:19.631Z,7.07
2017-05-08T21:53:47.941Z,7.65
2017-05-08T21:56:17.004Z,7.23
2017-05-08T21:58:45.305Z,8.02
2017-05-08T22:01:13.630Z,7.53
2017-05-08T22:03:41.926Z,7.00
2017-05-08T22:06:10.236Z,7.10
2017-05-08T22:08:38.569Z,6.60
2017-05-08T22:11:06.871Z,7.30
2017-05-08T22:13:35.162Z,6.62
2017-05-08T22:18:38.079Z,6.57
2017-05-08T22:21:06.415Z,6.33
2017-05-08T22:23:34.718Z,6.98
2017-05-08T22:26:03.017Z,5.93
2017-05-08T22:28:31.339Z,6.55
2017-05-08T22:30:59.648Z,6.32
2017-05-08T22:33:27.947Z,5.78
2017-05-08T22:35:56.287Z,6.27
2017-05-08T22:38:24.591Z,6.30
2017-05-08T22:40:52.888Z,6.12
2017-05-08T22:43:21.210Z,5.62
2017-05-08T22:45:49.506Z,6.82
2017-05-08T22:48:17.806Z,5.80
2017-05-08T22:50:46.146Z,6.92
2017-05-08T22:53:14.445Z,5.53
2017-05-08T22:55:42.747Z,6.10
2017-05-08T22:58:11.078Z,5.47
2017-05-08T23:00:39.383Z,5.33
2017-05-08T23:03:07.689Z,6.10
2017-05-08T23:05:36.027Z,7.52
2017-05-08T23:08:04.330Z,5.65
2017-05-08T23:10:32.626Z,5.55
2017-05-08T23:13:00.958Z,5.33
2017-05-08T23:15:29.991Z,5.88
2017-05-08T23:17:58.303Z,5.20
2017-05-08T23:20:27.389Z,4.52
2017-05-08T23:22:56.435Z,5.75
2017-05-08T23:25:24.744Z,5.35
2017-05-08T23:27:53.085Z,5.48
2017-05-08T23:30:21.381Z,5.45
2017-05-08T23:32:49.684Z,5.45
2017-05-08T23:35:18.023Z,4.55
2017-05-08T23:37:46.309Z,5.23
2017-05-08T23:40:14.605Z,4.88
2017-05-08T23:42:42.945Z,5.22
2017-05-08T23:45:11.235Z,4.82
2017-05-08T23:47:39.530Z,4.87
2017-05-08T23:50:07.850Z,5.70
2017-05-08T23:52:36.904Z,5.02
2017-05-08T23:55:05.195Z,5.20
2017-05-08T23:57:33.538Z,4.17
